This is the latest recevied weather packets stored in our database for station/object KJ5SC. If no packets are shown the sender has not sent any weather packets the latest 10 day(s).
| Time | Temp. | Humidity | Pressure | Rain* | Wind** | Luminosity | Snow |
|---|---|---|---|---|---|---|---|
| 1787863354 | 36.67° C | 48% | 1014.9 hPa | 0 mm | - | 48 W/m² | - |
| 1787863051 | 38.33° C | 43% | 1014.7 hPa | 0 mm | - | 65 W/m² | - |
| 1787862746 | 38.89° C | 36% | 1014.6 hPa | 0 mm | - | 121 W/m² | - |
| 1787862446 | 38.89° C | 36% | 1014.7 hPa | 0 mm | - | 162 W/m² | - |
| 1787862141 | 38.89° C | 39% | 1014.7 hPa | 0 mm | - | 173 W/m² | - |
| 1787861836 | 38.89° C | 39% | 1014.8 hPa | 0 mm | - | 149 W/m² | - |
| 1787861534 | 38.89° C | 39% | 1014.7 hPa | 0 mm | - | 178 W/m² | - |
| 1787861229 | 38.33° C | 41% | 1014.7 hPa | 0 mm | - | 166 W/m² | - |
| 1787860928 | 38.33° C | 40% | 1014.8 hPa | 0 mm | - | 150 W/m² | - |
| 1787860623 | 38.33° C | 41% | 1014.8 hPa | 0 mm | - | 145 W/m² | - |
| 1787860318 | 38.89° C | 40% | 1015.1 hPa | 0 mm | - | 126 W/m² | - |
| 1787860013 | 37.78° C | 41% | 1015.3 hPa | 0 mm | - | 591 W/m² | - |
| 1787859709 | 38.33° C | 40% | 1015.3 hPa | 0 mm | - | 146 W/m² | - |
| 1787859408 | 39.44° C | 39% | 1015.4 hPa | 0 mm | - | 191 W/m² | - |
| 1787859104 | 38.89° C | 41% | 1015.6 hPa | 0 mm | - | 753 W/m² | - |
| 1787858800 | 38.33° C | 41% | 1015.6 hPa | 0 mm | - | 536 W/m² | - |
| 1787858496 | 38.89° C | 40% | 1015.6 hPa | 0 mm | - | 196 W/m² | - |
| 1787858195 | 38.89° C | 40% | 1015.7 hPa | 0 mm | - | 778 W/m² | - |
| 1787857891 | 39.44° C | 39% | 1015.5 hPa | 0 mm | - | 198 W/m² | - |
| 1787857587 | 38.89° C | 41% | 1015.9 hPa | 0 mm | - | 825 W/m² | - |
| 1787857287 | 38.89° C | 41% | 1016.2 hPa | 0 mm | - | 844 W/m² | - |
| 1787856986 | 38.89° C | 42% | 1016 hPa | 0 mm | - | 817 W/m² | - |
| 1787856680 | 38.89° C | 42% | 1016.1 hPa | 0 mm | - | 837 W/m² | - |
| 1787856380 | 38.89° C | 41% | 1016.1 hPa | 0 mm | - | 787 W/m² | - |
| 1787856075 | 38.33° C | 43% | 1016.3 hPa | 0 mm | - | 798 W/m² | - |
* Rain latest hour (hover to see other rain measurements)
** Current wind speed in m/s (hover to see current wind gust speed)